createdAt,value
2023-02-23T00:01:57.801Z,7.80
2023-02-23T00:04:26.475Z,7.80
2023-02-23T00:06:54.983Z,7.70
2023-02-23T00:09:24.724Z,7.70
2023-02-23T00:11:56.614Z,7.80
2023-02-23T00:14:27.978Z,7.70
2023-02-23T00:16:56.727Z,7.70
2023-02-23T00:19:25.773Z,7.60
2023-02-23T00:21:54.753Z,7.60
2023-02-23T00:24:26.834Z,7.50
2023-02-23T00:26:57.130Z,7.50
2023-02-23T00:29:26.349Z,7.50
2023-02-23T00:31:56.089Z,7.50
2023-02-23T00:34:24.792Z,7.80
2023-02-23T00:36:55.365Z,8.00
2023-02-23T00:39:37.247Z,7.80
2023-02-23T00:42:16.066Z,7.50
2023-02-23T00:44:44.628Z,7.20
2023-02-23T00:47:13.033Z,7.00
2023-02-23T00:49:44.938Z,6.90
2023-02-23T00:52:15.100Z,6.70
2023-02-23T00:54:43.672Z,6.60
2023-02-23T00:57:12.106Z,6.40
2023-02-23T00:59:42.009Z,6.30
2023-02-23T01:02:10.611Z,6.30
2023-02-23T01:04:39.051Z,6.30
2023-02-23T01:07:07.764Z,6.30
2023-02-23T01:09:36.205Z,6.30
2023-02-23T01:12:07.534Z,6.30
2023-02-23T01:14:37.618Z,6.40
2023-02-23T01:17:07.767Z,6.30
2023-02-23T01:19:36.204Z,6.30
2023-02-23T01:22:04.919Z,6.30
2023-02-23T01:24:33.534Z,6.20
2023-02-23T01:27:02.000Z,6.10
2023-02-23T01:29:30.476Z,6.10
2023-02-23T01:31:59.030Z,6.00
2023-02-23T01:34:28.953Z,6.00
2023-02-23T01:36:57.405Z,6.00
2023-02-23T01:39:25.885Z,5.90
2023-02-23T01:41:54.522Z,5.80
2023-02-23T01:45:00.521Z,5.80
2023-02-23T01:47:29.930Z,5.80
2023-02-23T01:50:00.156Z,5.70
2023-02-23T01:52:28.679Z,5.70
2023-02-23T01:54:59.368Z,5.70
2023-02-23T01:57:28.002Z,5.60
2023-02-23T01:59:56.700Z,5.60
2023-02-23T02:02:33.135Z,5.50
2023-02-23T02:05:04.697Z,5.50
2023-02-23T02:07:35.224Z,5.40
2023-02-23T02:10:27.167Z,5.40
2023-02-23T02:12:58.409Z,5.40
2023-02-23T02:15:29.712Z,5.40
2023-02-23T02:18:09.212Z,5.40
2023-02-23T02:20:58.506Z,5.40
2023-02-23T02:23:53.519Z,5.40
2023-02-23T02:26:27.691Z,5.30
2023-02-23T02:29:22.813Z,5.30
2023-02-23T02:32:39.618Z,5.30
2023-02-23T02:35:38.840Z,5.20
2023-02-23T02:38:17.485Z,5.20
2023-02-23T02:40:54.388Z,5.30
2023-02-23T02:43:28.808Z,5.20
2023-02-23T02:46:03.161Z,5.20
2023-02-23T02:48:38.690Z,5.20
2023-02-23T02:51:10.052Z,5.20
2023-02-23T02:53:45.711Z,5.20
2023-02-23T02:56:19.859Z,5.20
2023-02-23T02:58:50.244Z,5.20
2023-02-23T03:01:37.409Z,5.20
2023-02-23T03:04:38.458Z,5.20
2023-02-23T03:07:29.516Z,5.20
2023-02-23T03:10:21.330Z,5.20
2023-02-23T03:13:14.884Z,5.20
2023-02-23T03:16:09.265Z,5.20
2023-02-23T03:19:07.532Z,5.20
2023-02-23T03:22:02.785Z,5.20
2023-02-23T03:24:55.873Z,5.20
2023-02-23T03:27:45.862Z,5.10
2023-02-23T03:30:37.123Z,5.10
2023-02-23T03:33:27.151Z,5.00
2023-02-23T03:36:16.479Z,5.00
2023-02-23T03:39:06.330Z,5.00
2023-02-23T03:41:52.848Z,5.00
2023-02-23T03:44:43.047Z,5.00
2023-02-23T03:47:29.834Z,4.90
2023-02-23T03:50:16.568Z,5.00
2023-02-23T03:53:13.016Z,5.00
2023-02-23T03:56:02.350Z,4.90
2023-02-23T03:58:52.223Z,4.90
2023-02-23T04:01:40.681Z,4.80
2023-02-23T04:04:27.913Z,5.10
2023-02-23T04:07:16.137Z,5.60
2023-02-23T04:10:02.027Z,6.10
2023-02-23T04:12:52.739Z,6.20
2023-02-23T04:15:25.378Z,6.10
2023-02-23T04:17:55.715Z,6.10
2023-02-23T04:20:25.157Z,6.00
2023-02-23T04:22:54.039Z,5.90
2023-02-23T04:25:23.147Z,5.80
2023-02-23T04:27:51.913Z,5.80
2023-02-23T04:30:20.548Z,5.70
2023-02-23T04:32:49.367Z,5.70
2023-02-23T04:35:19.416Z,5.60
2023-02-23T04:37:47.934Z,5.60
2023-02-23T04:40:16.444Z,5.60
2023-02-23T04:42:44.864Z,5.60
2023-02-23T04:45:13.374Z,5.60
2023-02-23T04:47:41.842Z,5.60
2023-02-23T04:50:12.006Z,5.60
2023-02-23T04:52:41.945Z,5.60
2023-02-23T04:55:15.313Z,5.80
2023-02-23T04:57:43.791Z,6.20
2023-02-23T05:00:13.998Z,6.60
2023-02-23T05:02:42.424Z,6.80
2023-02-23T05:05:11.266Z,7.00
2023-02-23T05:07:41.228Z,7.20
2023-02-23T05:10:11.309Z,7.40
2023-02-23T05:12:39.818Z,7.50
2023-02-23T05:15:11.009Z,7.60
2023-02-23T05:17:42.312Z,7.70
2023-02-23T05:20:12.354Z,7.70
2023-02-23T05:22:42.729Z,7.70
2023-02-23T05:25:11.911Z,7.70
2023-02-23T05:27:40.664Z,7.60
2023-02-23T05:30:10.580Z,7.70
2023-02-23T05:32:39.035Z,7.60
2023-02-23T05:35:09.018Z,7.70
2023-02-23T05:37:37.545Z,7.70
2023-02-23T05:40:09.009Z,7.70
2023-02-23T05:42:38.476Z,7.80
2023-02-23T05:45:08.295Z,7.70
2023-02-23T05:47:38.860Z,7.80
2023-02-23T05:50:10.044Z,7.80
2023-02-23T05:52:41.639Z,7.90
2023-02-23T05:55:12.645Z,7.90
2023-02-23T05:57:42.732Z,7.80
2023-02-23T06:00:13.492Z,7.90
2023-02-23T06:02:42.119Z,7.90
2023-02-23T06:05:11.267Z,7.90
2023-02-23T06:07:39.819Z,8.00
2023-02-23T06:10:09.288Z,8.10
2023-02-23T06:12:39.059Z,8.30
2023-02-23T06:15:08.509Z,8.40
2023-02-23T06:17:37.119Z,8.50
2023-02-23T06:20:07.296Z,8.60
2023-02-23T06:22:35.818Z,8.70
2023-02-23T06:25:05.823Z,8.80
2023-02-23T06:27:34.260Z,8.90
2023-02-23T06:30:04.149Z,8.90
2023-02-23T06:32:32.642Z,8.90
2023-02-23T06:35:01.729Z,9.00
2023-02-23T06:37:30.138Z,9.10
2023-02-23T06:40:01.870Z,9.10
2023-02-23T06:42:30.391Z,9.10
2023-02-23T06:44:58.809Z,9.10
2023-02-23T06:47:28.650Z,9.20
2023-02-23T06:49:57.184Z,9.00
2023-02-23T06:52:26.304Z,8.40
2023-02-23T06:54:54.709Z,7.80
2023-02-23T06:57:23.195Z,7.30
2023-02-23T06:59:51.620Z,6.90
2023-02-23T07:02:20.654Z,6.20
2023-02-23T07:04:50.559Z,5.70
2023-02-23T07:07:18.985Z,5.50
2023-02-23T07:09:47.486Z,5.40
2023-02-23T07:12:15.914Z,5.20
2023-02-23T07:14:44.346Z,5.10
2023-02-23T07:17:12.830Z,5.00
2023-02-23T07:19:41.399Z,4.90
2023-02-23T07:22:11.431Z,4.90
2023-02-23T07:24:39.904Z,4.90
2023-02-23T07:27:08.384Z,5.00
2023-02-23T07:29:36.848Z,5.20
2023-02-23T07:32:06.623Z,5.10
2023-02-23T07:34:35.273Z,5.20
2023-02-23T07:37:03.717Z,5.30
2023-02-23T07:39:33.569Z,5.30
2023-02-23T07:42:02.036Z,5.40
2023-02-23T07:44:30.476Z,5.50
2023-02-23T07:46:58.929Z,5.50
2023-02-23T07:49:27.506Z,5.60
2023-02-23T07:51:56.074Z,5.70
2023-02-23T07:54:25.486Z,5.70
2023-02-23T07:56:55.485Z,5.80
2023-02-23T07:59:23.963Z,5.90
2023-02-23T08:01:52.807Z,6.00
2023-02-23T08:04:21.283Z,6.10
2023-02-23T08:06:49.838Z,6.10
2023-02-23T08:09:18.297Z,6.10
2023-02-23T08:11:46.810Z,6.20
2023-02-23T08:14:16.612Z,6.30
2023-02-23T08:16:45.796Z,6.30
2023-02-23T08:19:14.289Z,6.30
2023-02-23T08:21:43.488Z,6.40
2023-02-23T08:24:12.029Z,6.50
2023-02-23T08:26:43.643Z,6.60
2023-02-23T08:29:12.307Z,6.70
2023-02-23T08:31:42.637Z,6.80
2023-02-23T08:34:11.345Z,6.90
2023-02-23T08:36:40.293Z,7.00
2023-02-23T08:39:10.086Z,7.10
2023-02-23T08:41:38.670Z,7.20
2023-02-23T08:44:07.409Z,7.30
2023-02-23T08:46:35.844Z,7.50
2023-02-23T08:49:06.000Z,7.60
2023-02-23T08:51:35.486Z,7.70
2023-02-23T08:54:04.035Z,7.60
2023-02-23T08:56:33.374Z,7.80
2023-02-23T08:59:01.816Z,7.90
2023-02-23T09:01:30.382Z,8.10
2023-02-23T09:03:58.888Z,8.20
2023-02-23T09:06:29.406Z,8.30
2023-02-23T09:09:00.994Z,8.40
2023-02-23T09:11:29.780Z,8.40
2023-02-23T09:13:58.286Z,8.50
2023-02-23T09:16:26.891Z,8.50
2023-02-23T09:18:55.967Z,8.60
2023-02-23T09:21:26.457Z,8.70
2023-02-23T09:23:56.587Z,8.80
2023-02-23T09:26:26.263Z,8.80
2023-02-23T09:28:54.642Z,8.90
2023-02-23T09:31:25.303Z,8.90
2023-02-23T09:33:54.220Z,8.90
2023-02-23T09:36:24.882Z,8.90
2023-02-23T09:38:57.266Z,9.00
2023-02-23T09:42:02.533Z,9.00
2023-02-23T09:44:42.532Z,9.10
2023-02-23T09:47:23.371Z,9.10
2023-02-23T09:49:53.158Z,9.10
2023-02-23T09:52:23.909Z,9.10
2023-02-23T09:54:53.882Z,9.30
2023-02-23T09:57:27.344Z,9.40
2023-02-23T09:59:55.782Z,9.40
2023-02-23T10:02:25.740Z,9.40
2023-02-23T10:04:58.690Z,9.40
2023-02-23T10:07:33.017Z,9.50
2023-02-23T10:10:11.729Z,9.60
2023-02-23T10:12:45.896Z,9.70
2023-02-23T10:15:18.200Z,9.80
2023-02-23T10:17:56.748Z,9.90
2023-02-23T10:20:31.388Z,9.90
2023-02-23T10:23:04.879Z,10.00
2023-02-23T10:25:37.741Z,10.00
2023-02-23T10:28:06.345Z,10.00
2023-02-23T10:30:35.623Z,9.90
2023-02-23T10:33:15.239Z,9.90
2023-02-23T10:35:43.969Z,9.90
2023-02-23T10:38:17.068Z,9.90
2023-02-23T10:40:51.226Z,9.90
2023-02-23T10:43:19.878Z,9.90
2023-02-23T10:45:50.211Z,10.00
2023-02-23T10:48:20.681Z,10.00
2023-02-23T10:50:50.564Z,10.00
2023-02-23T10:53:22.816Z,10.00
2023-02-23T10:56:04.119Z,10.00
2023-02-23T10:58:33.369Z,10.00
2023-02-23T11:01:02.927Z,10.00
2023-02-23T11:03:34.728Z,10.10
2023-02-23T11:06:03.616Z,10.10
2023-02-23T11:08:34.473Z,10.10
2023-02-23T11:11:12.582Z,10.20
2023-02-23T11:13:44.244Z,10.20
2023-02-23T11:16:14.643Z,10.20
2023-02-23T11:18:44.458Z,10.20
2023-02-23T11:21:14.479Z,10.20
2023-02-23T11:23:43.095Z,10.20
2023-02-23T11:26:29.975Z,10.30
2023-02-23T11:29:00.924Z,10.30
2023-02-23T11:31:34.710Z,10.30
2023-02-23T11:34:04.995Z,10.30
2023-02-23T11:36:35.121Z,10.40
2023-02-23T11:39:07.785Z,10.40
2023-02-23T11:41:37.909Z,10.50
2023-02-23T11:44:06.652Z,10.50
2023-02-23T11:46:39.288Z,10.60
2023-02-23T11:49:09.205Z,10.50
2023-02-23T11:51:39.438Z,10.50
2023-02-23T11:54:20.576Z,10.50
2023-02-23T11:56:55.522Z,10.50
2023-02-23T11:59:29.259Z,10.50
2023-02-23T12:02:04.536Z,10.50
2023-02-23T12:04:39.144Z,10.60
2023-02-23T12:07:27.358Z,10.50
2023-02-23T12:10:02.033Z,10.60
2023-02-23T12:12:32.678Z,10.60
2023-02-23T12:15:07.532Z,10.60
2023-02-23T12:17:42.079Z,10.60
2023-02-23T12:20:15.558Z,10.60
2023-02-23T12:22:46.996Z,10.60
2023-02-23T12:25:23.558Z,10.70
2023-02-23T12:28:05.058Z,10.70
2023-02-23T12:30:43.950Z,10.60
2023-02-23T12:33:15.093Z,10.60
2023-02-23T12:35:48.197Z,10.50
2023-02-23T12:38:27.764Z,10.50
2023-02-23T12:41:02.776Z,10.50
2023-02-23T12:43:39.037Z,10.60
2023-02-23T12:46:14.427Z,10.60
2023-02-23T12:48:51.199Z,10.60
2023-02-23T12:51:25.931Z,10.60
2023-02-23T12:53:54.335Z,10.60
2023-02-23T12:56:42.479Z,10.70
2023-02-23T12:59:27.891Z,10.80
2023-02-23T13:01:59.522Z,10.80
2023-02-23T13:04:45.990Z,10.80
2023-02-23T13:07:20.654Z,10.90
2023-02-23T13:09:58.783Z,10.80
2023-02-23T13:12:49.557Z,10.80
2023-02-23T13:15:26.903Z,10.80
2023-02-23T13:17:59.577Z,10.80
2023-02-23T13:20:33.644Z,10.90
2023-02-23T13:23:12.598Z,10.90
2023-02-23T13:25:47.531Z,10.90
2023-02-23T13:28:20.614Z,10.80
2023-02-23T13:30:50.691Z,10.80
2023-02-23T13:33:34.917Z,10.80
2023-02-23T13:36:12.896Z,10.80
2023-02-23T13:38:46.815Z,10.70
2023-02-23T13:41:22.534Z,10.70
2023-02-23T13:43:57.658Z,10.70
2023-02-23T13:46:33.393Z,10.70
2023-02-23T13:49:06.345Z,10.70
2023-02-23T13:51:40.001Z,10.70
2023-02-23T13:54:24.813Z,10.70
2023-02-23T13:56:56.795Z,10.70
2023-02-23T13:59:29.364Z,10.70
2023-02-23T14:02:01.855Z,10.70
2023-02-23T14:04:36.639Z,10.70
2023-02-23T14:07:07.008Z,10.70
2023-02-23T14:09:37.603Z,10.70
2023-02-23T14:12:17.046Z,10.70
2023-02-23T14:14:46.887Z,10.70
2023-02-23T14:17:42.653Z,10.70
2023-02-23T14:20:29.712Z,10.80
2023-02-23T14:23:31.468Z,10.80
2023-02-23T14:26:19.923Z,10.70
2023-02-23T14:28:50.337Z,10.70
2023-02-23T14:31:25.869Z,10.70
2023-02-23T14:34:02.021Z,10.70
2023-02-23T14:36:44.966Z,10.70
2023-02-23T14:39:20.027Z,10.70
2023-02-23T14:41:51.385Z,10.70
2023-02-23T14:44:31.209Z,10.70
2023-02-23T14:47:04.192Z,10.70
2023-02-23T14:49:36.895Z,10.70
2023-02-23T14:52:20.868Z,10.70
2023-02-23T14:54:49.533Z,10.70
2023-02-23T14:57:20.630Z,10.60
2023-02-23T14:59:59.432Z,10.60
2023-02-23T15:02:29.448Z,10.60
2023-02-23T15:05:15.996Z,11.00
2023-02-23T15:07:46.857Z,11.80
2023-02-23T15:10:25.871Z,12.30
2023-02-23T15:12:54.918Z,12.70
2023-02-23T15:15:26.770Z,13.10
2023-02-23T15:17:57.517Z,13.40
2023-02-23T15:20:32.679Z,13.60
2023-02-23T15:23:03.958Z,13.50
2023-02-23T15:25:38.759Z,13.00
2023-02-23T15:28:23.265Z,12.70
2023-02-23T15:30:53.596Z,12.40
2023-02-23T15:33:28.306Z,12.20
2023-02-23T15:36:04.074Z,12.10
2023-02-23T15:38:43.362Z,11.90
2023-02-23T15:41:19.743Z,11.70
2023-02-23T15:43:48.437Z,11.60
2023-02-23T15:46:24.447Z,11.40
2023-02-23T15:48:53.866Z,11.30
2023-02-23T15:51:32.472Z,11.20
2023-02-23T15:54:02.435Z,11.10
2023-02-23T15:56:36.136Z,11.00
2023-02-23T15:59:11.066Z,11.00
2023-02-23T16:01:44.193Z,11.00
2023-02-23T16:04:18.322Z,11.00
2023-02-23T16:06:56.068Z,11.00
2023-02-23T16:09:29.610Z,11.00
2023-02-23T16:12:02.464Z,10.90
2023-02-23T16:14:35.360Z,10.90
2023-02-23T16:17:11.170Z,10.80
2023-02-23T16:19:41.709Z,10.70
2023-02-23T16:22:21.984Z,10.60
2023-02-23T16:25:00.361Z,10.60
2023-02-23T16:27:29.858Z,10.50
2023-02-23T16:30:01.310Z,10.50
2023-02-23T16:32:45.359Z,10.40
2023-02-23T16:35:18.321Z,10.40
2023-02-23T16:38:03.630Z,10.30
2023-02-23T16:40:32.168Z,10.30
2023-02-23T16:43:00.822Z,10.30
2023-02-23T16:45:29.744Z,10.20
2023-02-23T16:48:02.473Z,10.20
2023-02-23T16:50:33.572Z,10.20
2023-02-23T16:53:03.743Z,10.20
2023-02-23T16:55:39.151Z,10.20
2023-02-23T16:58:11.732Z,10.20
2023-02-23T17:00:40.221Z,10.10
2023-02-23T17:03:16.134Z,10.00
2023-02-23T17:05:45.595Z,10.00
2023-02-23T17:08:15.474Z,9.90
2023-02-23T17:10:49.319Z,9.90
2023-02-23T17:13:19.393Z,9.80
2023-02-23T17:15:51.947Z,9.80
2023-02-23T17:18:22.068Z,9.80
2023-02-23T17:20:50.929Z,9.70
2023-02-23T17:23:21.754Z,9.70
2023-02-23T17:25:50.655Z,9.60
2023-02-23T17:28:22.041Z,9.60
2023-02-23T17:30:50.916Z,9.50
2023-02-23T17:33:19.600Z,9.40
2023-02-23T17:35:48.121Z,9.30
2023-02-23T17:38:21.504Z,9.30
2023-02-23T17:40:51.488Z,9.20
2023-02-23T17:43:22.556Z,9.20
2023-02-23T17:45:51.771Z,9.20
2023-02-23T17:48:20.351Z,9.10
2023-02-23T17:50:48.873Z,9.10
2023-02-23T17:53:17.404Z,9.00
2023-02-23T17:55:46.538Z,9.00
2023-02-23T17:58:16.385Z,8.90
2023-02-23T18:00:44.933Z,8.90
2023-02-23T18:03:13.401Z,8.80
2023-02-23T18:05:41.850Z,8.80
2023-02-23T18:08:10.493Z,8.70
2023-02-23T18:10:38.910Z,8.70
2023-02-23T18:13:08.027Z,8.70
2023-02-23T18:15:37.832Z,8.70
2023-02-23T18:18:06.381Z,8.70
2023-02-23T18:20:34.821Z,8.60
2023-02-23T18:23:03.278Z,8.60
2023-02-23T18:25:31.924Z,8.60
2023-02-23T18:28:00.335Z,8.60
2023-02-23T18:30:28.789Z,8.60
2023-02-23T18:33:00.624Z,8.60
2023-02-23T18:35:29.390Z,8.50
2023-02-23T18:37:57.890Z,8.50
2023-02-23T18:40:27.388Z,8.50
2023-02-23T18:42:57.383Z,8.50
2023-02-23T18:45:25.974Z,8.50
2023-02-23T18:47:54.507Z,8.50
2023-02-23T18:50:26.429Z,8.50
2023-02-23T18:52:56.780Z,8.40
2023-02-23T18:55:25.665Z,8.40
2023-02-23T18:57:54.073Z,8.40
2023-02-23T19:00:23.409Z,8.40
2023-02-23T19:02:51.791Z,8.40
2023-02-23T19:05:22.005Z,8.40
2023-02-23T19:07:52.282Z,8.40
2023-02-23T19:10:20.796Z,8.40
2023-02-23T19:12:49.329Z,8.40
2023-02-23T19:15:17.799Z,8.40
2023-02-23T19:17:47.430Z,8.40
2023-02-23T19:20:17.180Z,8.40
2023-02-23T19:22:45.961Z,8.40
2023-02-23T19:25:15.991Z,8.40
2023-02-23T19:27:44.574Z,8.40
2023-02-23T19:30:14.620Z,8.40
2023-02-23T19:32:44.520Z,8.40
2023-02-23T19:35:15.704Z,8.40
2023-02-23T19:37:50.920Z,8.40
2023-02-23T19:40:22.770Z,8.40
2023-02-23T19:42:53.083Z,8.40
2023-02-23T19:45:24.815Z,8.40
2023-02-23T19:47:53.785Z,8.30
2023-02-23T19:50:22.598Z,8.40
2023-02-23T19:52:51.169Z,8.40
2023-02-23T19:55:21.374Z,8.30
2023-02-23T19:57:49.889Z,8.40
2023-02-23T20:00:19.388Z,8.40
2023-02-23T20:02:54.882Z,8.30
2023-02-23T20:05:25.672Z,8.30
2023-02-23T20:07:54.586Z,8.30
2023-02-23T20:10:25.938Z,8.30
2023-02-23T20:12:54.371Z,8.30
2023-02-23T20:15:23.379Z,8.30
2023-02-23T20:17:52.310Z,8.30
2023-02-23T20:20:25.467Z,8.20
2023-02-23T20:22:55.388Z,8.20
2023-02-23T20:25:27.185Z,8.20
2023-02-23T20:27:55.984Z,8.20
2023-02-23T20:30:24.789Z,8.20
2023-02-23T20:32:53.325Z,8.20
2023-02-23T20:35:26.108Z,8.10
2023-02-23T20:37:54.657Z,8.10
2023-02-23T20:40:24.537Z,8.10
2023-02-23T20:42:53.248Z,8.20
2023-02-23T20:45:23.389Z,8.10
2023-02-23T20:47:53.509Z,8.10
2023-02-23T20:50:23.013Z,8.10
2023-02-23T20:52:51.876Z,8.00
2023-02-23T20:55:21.122Z,8.00
2023-02-23T20:57:52.309Z,8.00
2023-02-23T21:00:28.320Z,8.00
2023-02-23T21:02:57.289Z,8.00
2023-02-23T21:05:27.687Z,8.00
2023-02-23T21:08:00.968Z,8.00
2023-02-23T21:10:34.091Z,8.00
2023-02-23T21:13:05.034Z,8.00
2023-02-23T21:15:35.094Z,8.00
2023-02-23T21:18:05.113Z,8.10
2023-02-23T21:20:34.385Z,8.10
2023-02-23T21:23:04.374Z,8.10
2023-02-23T21:25:33.755Z,8.10
2023-02-23T21:28:03.829Z,8.10
2023-02-23T21:30:33.085Z,8.10
2023-02-23T21:33:03.921Z,8.00
2023-02-23T21:35:35.217Z,8.00
2023-02-23T21:38:04.273Z,8.00
2023-02-23T21:40:33.272Z,8.00
2023-02-23T21:43:09.137Z,8.00
2023-02-23T21:45:41.818Z,7.90
2023-02-23T21:48:10.976Z,7.90
2023-02-23T21:50:41.703Z,7.90
2023-02-23T21:53:12.773Z,7.90
2023-02-23T21:55:44.442Z,7.90
2023-02-23T21:58:14.588Z,7.90
2023-02-23T22:00:44.734Z,7.90
2023-02-23T22:03:13.537Z,8.40
2023-02-23T22:05:42.076Z,9.10
2023-02-23T22:08:15.686Z,9.70
2023-02-23T22:10:44.315Z,10.20
2023-02-23T22:13:14.185Z,10.60
2023-02-23T22:15:43.278Z,10.90
2023-02-23T22:18:14.307Z,11.10
2023-02-23T22:20:45.930Z,11.00
2023-02-23T22:23:14.454Z,11.00
2023-02-23T22:25:47.025Z,11.10
2023-02-23T22:28:17.222Z,11.00
2023-02-23T22:30:50.795Z,11.00
2023-02-23T22:33:20.400Z,11.00
2023-02-23T22:35:49.013Z,11.00
2023-02-23T22:38:19.674Z,11.00
2023-02-23T22:40:48.670Z,11.00
2023-02-23T22:43:21.892Z,11.00
2023-02-23T22:45:54.664Z,10.90
2023-02-23T22:48:23.598Z,10.80
2023-02-23T22:50:52.365Z,10.80
2023-02-23T22:53:20.841Z,10.90
2023-02-23T22:55:50.065Z,10.90
2023-02-23T22:58:23.199Z,10.70
2023-02-23T23:01:04.003Z,10.60
2023-02-23T23:03:34.729Z,10.50
2023-02-23T23:06:04.826Z,10.40
2023-02-23T23:08:36.951Z,10.30
2023-02-23T23:11:09.500Z,10.20
2023-02-23T23:13:44.523Z,10.20
2023-02-23T23:16:25.563Z,10.10
2023-02-23T23:19:02.695Z,10.10
2023-02-23T23:21:32.727Z,10.10
2023-02-23T23:24:05.799Z,10.20
2023-02-23T23:26:36.543Z,10.30
2023-02-23T23:29:10.192Z,10.30
2023-02-23T23:31:39.707Z,10.30
2023-02-23T23:34:10.461Z,10.20
2023-02-23T23:36:43.026Z,10.20
2023-02-23T23:39:13.229Z,10.10
2023-02-23T23:41:43.089Z,10.10
2023-02-23T23:44:13.283Z,10.10
2023-02-23T23:46:43.778Z,10.10
2023-02-23T23:49:14.853Z,10.10
2023-02-23T23:51:46.433Z,10.00
2023-02-23T23:54:17.880Z,9.90
2023-02-23T23:56:46.817Z,9.90
2023-02-23T23:59:20.321Z,10.00
